Westline, Pennsylvania
Current Conditions -  °F | °C
As of 4:53 AM on Tuesday 21 Oct 2014 (Local Time) from KBFD Reporting Station
Light Rain Light Rain  
Wind Chill: 44°   Ceiling: 300
Heat Index: 46°   Visibility: 9mi
Dew Point: 44°   Wind: 5mph
Humidity: 93%   Direction: 200°SSW
Pressure: 29.8"   Gusts: NA
Location:  41.78°N, 78.77°W
Report Text: KBFD 210853Z AUTO 20004KT 9SM -RA OVC003 08/07 A2980 RMK AO2 SLP091 P0003 60008 T00780067 56007
Loading
Personal Weather Stations






























Interactive Weather Map
Tropical Storm Tracking
New forecast layout! Learn more

10-Day Weather Forecast

Advertisements
Track Severe Weather on mobile